createdAt,value
2023-04-12T00:02:24.904Z,7.80
2023-04-12T00:06:32.687Z,7.90
2023-04-12T00:10:36.153Z,8.10
2023-04-12T00:14:39.760Z,8.10
2023-04-12T00:18:45.914Z,8.00
2023-04-12T00:22:50.555Z,8.00
2023-04-12T00:26:53.939Z,7.90
2023-04-12T00:30:57.402Z,7.80
2023-04-12T00:35:02.368Z,7.80
2023-04-12T00:39:06.488Z,7.90
2023-04-12T00:43:10.441Z,7.90
2023-04-12T00:47:14.760Z,7.90
2023-04-12T00:51:22.480Z,7.90
2023-04-12T00:55:26.428Z,7.80
2023-04-12T00:59:29.903Z,7.70
2023-04-12T01:03:33.703Z,7.80
2023-04-12T01:07:51.662Z,7.80
2023-04-12T01:12:07.593Z,7.80
2023-04-12T01:16:22.533Z,7.80
2023-04-12T01:20:31.509Z,7.70
2023-04-12T01:24:50.323Z,7.70
2023-04-12T01:28:56.637Z,7.70
2023-04-12T01:33:05.024Z,7.80
2023-04-12T01:37:09.102Z,7.70
2023-04-12T01:41:13.439Z,7.60
2023-04-12T01:45:18.284Z,7.30
2023-04-12T01:49:25.891Z,7.20
2023-04-12T01:53:34.337Z,7.20
2023-04-12T01:57:39.180Z,7.10
2023-04-12T02:01:45.255Z,7.00
2023-04-12T02:05:48.968Z,6.90
2023-04-12T02:09:52.569Z,6.80
2023-04-12T02:13:56.657Z,6.80
2023-04-12T02:18:03.492Z,6.70
2023-04-12T02:22:08.399Z,6.60
2023-04-12T02:26:11.955Z,6.50
2023-04-12T02:30:15.946Z,6.50
2023-04-12T02:34:21.614Z,6.30
2023-04-12T02:38:25.092Z,6.00
2023-04-12T02:42:28.678Z,5.80
2023-04-12T02:46:32.253Z,5.60
2023-04-12T02:50:38.180Z,5.60
2023-04-12T02:54:41.581Z,5.30
2023-04-12T02:58:45.269Z,5.10
2023-04-12T03:02:50.072Z,4.90
2023-04-12T03:06:55.279Z,4.70
2023-04-12T03:10:58.935Z,4.50
2023-04-12T03:15:02.812Z,4.40
2023-04-12T03:19:06.730Z,4.10
2023-04-12T03:23:11.706Z,3.90
2023-04-12T03:27:15.490Z,3.90
2023-04-12T03:31:21.116Z,3.70
2023-04-12T03:35:24.910Z,3.60
2023-04-12T03:39:29.820Z,3.50
2023-04-12T03:43:36.206Z,3.40
2023-04-12T03:47:39.932Z,3.20
2023-04-12T03:51:44.008Z,3.20
2023-04-12T03:55:48.972Z,3.10
2023-04-12T03:59:53.040Z,3.00
2023-04-12T04:03:57.330Z,2.90
2023-04-12T04:08:02.558Z,2.90
2023-04-12T04:12:09.276Z,2.90
2023-04-12T04:16:13.286Z,2.90
2023-04-12T04:20:18.113Z,2.90
2023-04-12T04:24:22.552Z,2.80
2023-04-12T04:28:27.945Z,2.80
2023-04-12T04:32:31.748Z,2.60
2023-04-12T04:36:38.956Z,2.60
2023-04-12T04:40:42.379Z,2.60
2023-04-12T04:44:47.946Z,2.50
2023-04-12T04:48:55.296Z,2.50
2023-04-12T04:53:00.083Z,2.50
2023-04-12T04:57:08.041Z,2.50
2023-04-12T05:01:13.799Z,2.60
2023-04-12T05:05:17.741Z,2.80
2023-04-12T05:09:21.352Z,2.80
2023-04-12T05:13:25.117Z,2.80
2023-04-12T05:17:30.234Z,2.90
2023-04-12T05:21:35.285Z,3.10
2023-04-12T05:25:44.655Z,3.30
2023-04-12T05:29:48.423Z,3.50
2023-04-12T05:33:54.833Z,3.90
2023-04-12T05:37:58.289Z,4.30
2023-04-12T05:42:02.280Z,4.70
2023-04-12T05:46:07.979Z,5.00
2023-04-12T05:50:13.410Z,5.20
2023-04-12T05:54:21.126Z,5.20
2023-04-12T05:58:24.786Z,5.20
2023-04-12T06:02:28.583Z,5.20
2023-04-12T06:06:33.804Z,5.20
2023-04-12T06:10:37.358Z,5.30
2023-04-12T06:14:40.757Z,5.60
2023-04-12T06:18:44.345Z,6.10
2023-04-12T06:22:49.155Z,6.80
2023-04-12T06:26:52.720Z,7.40
2023-04-12T06:30:56.665Z,8.00
2023-04-12T06:35:00.307Z,8.50
2023-04-12T06:39:05.305Z,9.00
2023-04-12T06:43:09.095Z,9.20
2023-04-12T06:47:12.559Z,9.30
2023-04-12T06:51:16.296Z,9.30
2023-04-12T06:55:21.660Z,9.70
2023-04-12T06:59:25.177Z,9.70
2023-04-12T07:03:31.905Z,9.80
2023-04-12T07:07:35.443Z,9.90
2023-04-12T07:11:40.566Z,10.00
2023-04-12T07:15:45.354Z,10.10
2023-04-12T07:19:50.466Z,10.30
2023-04-12T07:23:54.033Z,10.40
2023-04-12T07:27:58.948Z,10.40
2023-04-12T07:32:02.368Z,10.40
2023-04-12T07:36:06.889Z,10.70
2023-04-12T07:40:10.848Z,10.80
2023-04-12T07:44:16.106Z,10.90
2023-04-12T07:48:19.528Z,10.80
2023-04-12T07:52:23.233Z,11.00
2023-04-12T07:56:27.218Z,11.60
2023-04-12T08:00:34.474Z,12.30
2023-04-12T08:04:38.629Z,13.30
2023-04-12T08:08:42.270Z,13.70
2023-04-12T08:12:45.926Z,13.70
2023-04-12T08:16:50.786Z,13.90
2023-04-12T08:20:54.369Z,14.00
2023-04-12T08:24:57.992Z,14.30
2023-04-12T08:29:02.025Z,14.00
2023-04-12T08:33:07.059Z,14.00
2023-04-12T08:37:10.840Z,13.40
2023-04-12T08:41:15.221Z,13.50
2023-04-12T08:45:19.458Z,13.50
2023-04-12T08:49:25.207Z,14.20
2023-04-12T08:53:29.048Z,14.30
2023-04-12T08:57:32.882Z,14.30
2023-04-12T09:01:37.273Z,15.70
2023-04-12T09:05:42.280Z,16.80
2023-04-12T09:09:48.319Z,16.40
2023-04-12T09:13:52.160Z,15.70
2023-04-12T09:18:08.389Z,15.10
2023-04-12T09:22:13.513Z,14.80
2023-04-12T09:26:29.919Z,14.70
2023-04-12T09:30:43.416Z,14.60
2023-04-12T09:34:58.007Z,14.40
2023-04-12T09:39:03.386Z,14.60
2023-04-12T09:43:07.653Z,14.70
2023-04-12T09:47:11.209Z,14.70
2023-04-12T09:51:14.957Z,14.70
2023-04-12T09:55:21.207Z,14.40
2023-04-12T09:59:28.546Z,15.20
2023-04-12T10:03:32.694Z,15.70
2023-04-12T10:07:38.436Z,16.00
2023-04-12T10:11:45.361Z,16.70
2023-04-12T10:15:52.781Z,16.70
2023-04-12T10:19:57.826Z,17.30
2023-04-12T10:24:01.895Z,17.40
2023-04-12T10:28:18.888Z,17.30
2023-04-12T10:32:24.457Z,17.40
2023-04-12T10:36:58.058Z,16.70
2023-04-12T10:41:25.704Z,16.60
2023-04-12T10:45:41.800Z,16.70
2023-04-12T10:50:25.207Z,16.40
2023-04-12T10:54:36.536Z,16.60
2023-04-12T10:59:00.272Z,16.70
2023-04-12T11:03:12.944Z,17.30
2023-04-12T11:07:17.383Z,17.20
2023-04-12T11:11:22.895Z,17.50
2023-04-12T11:15:30.932Z,17.90
2023-04-12T11:19:39.234Z,17.00
2023-04-12T11:23:47.353Z,16.40
2023-04-12T11:27:52.445Z,16.00
2023-04-12T11:31:56.540Z,16.20
2023-04-12T11:36:04.692Z,16.00
2023-04-12T11:40:10.802Z,16.80
2023-04-12T11:44:14.998Z,17.20
2023-04-12T11:48:18.759Z,17.20
2023-04-12T11:52:29.961Z,17.60
2023-04-12T11:56:33.627Z,18.00
2023-04-12T12:00:38.204Z,19.00
2023-04-12T12:04:44.780Z,18.60
2023-04-12T12:08:51.172Z,18.50
2023-04-12T12:12:59.227Z,17.70
2023-04-12T12:17:03.320Z,17.10
2023-04-12T12:21:10.919Z,17.20
2023-04-12T12:25:15.824Z,17.00
2023-04-12T12:29:19.873Z,17.60
2023-04-12T12:33:32.059Z,18.10
2023-04-12T12:37:50.845Z,18.30
2023-04-12T12:41:57.391Z,18.50
2023-04-12T12:46:01.023Z,18.80
2023-04-12T12:50:04.662Z,18.80
2023-04-12T12:54:08.381Z,19.70
2023-04-12T12:58:13.184Z,20.80
2023-04-12T13:02:20.087Z,21.30
2023-04-12T13:06:25.951Z,21.00
2023-04-12T13:10:29.570Z,20.00
2023-04-12T13:14:34.414Z,19.40
2023-04-12T13:18:38.284Z,19.80
2023-04-12T13:22:41.719Z,20.20
2023-04-12T13:26:45.145Z,20.20
2023-04-12T13:30:49.936Z,19.30
2023-04-12T13:34:53.772Z,19.90
2023-04-12T13:38:57.569Z,20.70
2023-04-12T13:43:01.292Z,22.20
2023-04-12T13:47:06.457Z,23.90
2023-04-12T13:51:10.438Z,24.00
2023-04-12T13:55:14.344Z,23.90
2023-04-12T13:59:17.876Z,22.90
2023-04-12T14:03:22.896Z,23.10
2023-04-12T14:07:26.426Z,23.20
2023-04-12T14:11:30.085Z,22.90
2023-04-12T14:15:33.513Z,22.20
2023-04-12T14:19:38.690Z,21.20
2023-04-12T14:23:42.632Z,21.90
2023-04-12T14:27:46.478Z,23.30
2023-04-12T14:31:49.983Z,23.20
2023-04-12T14:35:54.830Z,24.00
2023-04-12T14:39:58.430Z,23.40
2023-04-12T14:44:02.087Z,23.60
2023-04-12T14:48:05.814Z,24.60
2023-04-12T14:52:10.903Z,25.00
2023-04-12T14:56:25.349Z,24.40
2023-04-12T15:00:31.054Z,23.50
2023-04-12T15:04:36.171Z,22.90
2023-04-12T15:08:43.144Z,22.40
2023-04-12T15:12:46.847Z,21.00
2023-04-12T15:16:50.588Z,20.50
2023-04-12T15:20:55.197Z,19.50
2023-04-12T15:25:00.024Z,18.50
2023-04-12T15:29:03.957Z,18.30
2023-04-12T15:33:07.771Z,18.00
2023-04-12T15:37:11.991Z,17.60
2023-04-12T15:41:16.916Z,17.40
2023-04-12T15:45:20.593Z,17.30
2023-04-12T15:49:26.427Z,17.30
2023-04-12T15:53:29.956Z,17.10
2023-04-12T15:57:36.769Z,17.10
2023-04-12T16:01:40.424Z,17.00
2023-04-12T16:05:44.555Z,16.80
2023-04-12T16:09:48.171Z,16.60
2023-04-12T16:13:54.365Z,16.40
2023-04-12T16:17:58.802Z,16.10
2023-04-12T16:22:03.913Z,16.00
2023-04-12T16:26:07.815Z,15.90
2023-04-12T16:30:15.901Z,15.80
2023-04-12T16:34:22.014Z,15.60
2023-04-12T16:38:26.230Z,15.50
2023-04-12T16:42:32.197Z,15.40
2023-04-12T16:46:38.359Z,15.30
2023-04-12T16:50:45.092Z,15.30
2023-04-12T16:54:49.254Z,15.10
2023-04-12T16:58:53.292Z,15.00
2023-04-12T17:02:59.781Z,14.80
2023-04-12T17:07:04.229Z,14.60
2023-04-12T17:11:08.678Z,14.30
2023-04-12T17:15:13.737Z,13.90
2023-04-12T17:19:20.510Z,13.60
2023-04-12T17:23:24.658Z,13.40
2023-04-12T17:27:30.225Z,13.10
2023-04-12T17:35:43.391Z,12.40
2023-04-12T17:39:47.622Z,12.10
2023-04-12T17:43:52.999Z,11.80
2023-04-12T17:47:57.739Z,11.50
2023-04-12T17:52:04.064Z,11.30
2023-04-12T17:56:08.672Z,11.00
2023-04-12T18:00:21.004Z,10.80
2023-04-12T18:04:29.654Z,10.60
2023-04-12T18:08:37.749Z,10.50
2023-04-12T18:12:41.878Z,10.40
2023-04-12T18:16:45.913Z,10.30
2023-04-12T18:20:49.686Z,10.10
2023-04-12T18:24:57.061Z,10.00
2023-04-12T18:29:04.484Z,9.90
2023-04-12T18:33:09.612Z,9.90
2023-04-12T18:37:14.984Z,9.80
2023-04-12T18:41:24.786Z,9.80
2023-04-12T18:45:31.145Z,9.80
2023-04-12T18:49:39.952Z,9.80
2023-04-12T18:53:50.116Z,9.80
2023-04-12T18:57:56.282Z,9.80
2023-04-12T19:02:00.579Z,9.80
2023-04-12T19:06:05.705Z,9.80
2023-04-12T19:10:16.239Z,9.80
2023-04-12T19:14:24.041Z,9.80
2023-04-12T19:18:31.165Z,9.80
2023-04-12T19:22:38.566Z,9.90
2023-04-12T19:27:04.547Z,9.80
2023-04-12T19:31:10.865Z,9.80
2023-04-12T19:35:16.912Z,9.70
2023-04-12T19:39:23.576Z,9.60
2023-04-12T19:43:28.775Z,9.60
2023-04-12T19:47:34.989Z,9.50
2023-04-12T19:51:40.739Z,9.40
2023-04-12T19:55:46.085Z,9.30
2023-04-12T19:59:51.724Z,9.30
2023-04-12T20:03:57.623Z,9.10
2023-04-12T20:08:06.470Z,9.00
2023-04-12T20:12:12.228Z,9.00
2023-04-12T20:20:36.443Z,8.90
2023-04-12T20:24:42.329Z,9.00
2023-04-12T20:28:47.644Z,9.00
2023-04-12T20:32:54.645Z,8.90
2023-04-12T20:37:00.973Z,8.90
2023-04-12T20:41:05.626Z,8.80
2023-04-12T20:45:11.846Z,8.80
2023-04-12T20:49:15.668Z,8.80
2023-04-12T20:53:21.587Z,8.80
2023-04-12T20:57:26.718Z,8.90
2023-04-12T21:01:30.887Z,8.80
2023-04-12T21:05:34.416Z,8.80
2023-04-12T21:09:39.504Z,8.80
2023-04-12T21:13:44.729Z,8.70
2023-04-12T21:17:48.273Z,8.80
2023-04-12T21:21:52.076Z,8.80
2023-04-12T21:25:57.137Z,8.80
2023-04-12T21:30:00.633Z,8.80
2023-04-12T21:34:04.324Z,8.80
2023-04-12T21:38:07.810Z,8.80
2023-04-12T21:42:12.822Z,8.70
2023-04-12T21:46:16.574Z,8.80
2023-04-12T21:50:21.776Z,8.80
2023-04-12T21:54:26.919Z,8.80
2023-04-12T21:58:34.327Z,8.80
2023-04-12T22:02:37.954Z,8.90
2023-04-12T22:06:44.577Z,8.80
2023-04-12T22:10:49.117Z,8.80
2023-04-12T22:14:54.209Z,8.90
2023-04-12T22:18:59.413Z,8.90
2023-04-12T22:23:03.337Z,8.90
2023-04-12T22:27:07.155Z,8.90
2023-04-12T22:31:16.310Z,8.80
2023-04-12T22:35:20.701Z,8.80
2023-04-12T22:39:24.331Z,8.90
2023-04-12T22:43:34.384Z,8.70
2023-04-12T22:47:41.672Z,8.80
2023-04-12T22:51:45.392Z,8.70
2023-04-12T22:55:48.779Z,8.70
2023-04-12T22:59:53.630Z,8.80
2023-04-12T23:04:01.165Z,8.80
2023-04-12T23:08:05.083Z,8.80
2023-04-12T23:12:09.034Z,8.80
2023-04-12T23:16:12.570Z,8.90
2023-04-12T23:20:17.687Z,8.80
2023-04-12T23:24:21.159Z,8.90
2023-04-12T23:28:26.704Z,8.90
2023-04-12T23:32:30.256Z,8.90
2023-04-12T23:36:35.451Z,8.80
2023-04-12T23:40:38.937Z,8.70
2023-04-12T23:44:42.695Z,8.60
2023-04-12T23:48:46.090Z,8.70
2023-04-12T23:52:51.091Z,8.70
2023-04-12T23:56:54.530Z,8.60
